sensor_id;sensor_type;location;lat;lon;timestamp;P1;durP1;ratioP1;P2;durP2;ratioP2
74213;SDS011;62576;55.694;37.494;2022-12-07T00:01:53;7.10;;;2.08;;
74213;SDS011;62576;55.694;37.494;2022-12-07T00:04:23;4.93;;;1.95;;
74213;SDS011;62576;55.694;37.494;2022-12-07T00:06:54;7.25;;;2.40;;
74213;SDS011;62576;55.694;37.494;2022-12-07T00:09:24;7.53;;;2.10;;
74213;SDS011;62576;55.694;37.494;2022-12-07T00:11:54;9.32;;;2.17;;
74213;SDS011;62576;55.694;37.494;2022-12-07T00:14:24;4.75;;;2.08;;
74213;SDS011;62576;55.694;37.494;2022-12-07T00:16:54;6.90;;;2.00;;
74213;SDS011;62576;55.694;37.494;2022-12-07T00:19:24;5.18;;;1.70;;
74213;SDS011;62576;55.694;37.494;2022-12-07T00:21:55;5.45;;;2.25;;
74213;SDS011;62576;55.694;37.494;2022-12-07T00:24:25;7.45;;;2.17;;
74213;SDS011;62576;55.694;37.494;2022-12-07T00:26:55;6.22;;;1.98;;
74213;SDS011;62576;55.694;37.494;2022-12-07T00:29:26;6.35;;;2.38;;
74213;SDS011;62576;55.694;37.494;2022-12-07T00:31:56;12.07;;;2.42;;
74213;SDS011;62576;55.694;37.494;2022-12-07T00:34:26;5.40;;;2.10;;
74213;SDS011;62576;55.694;37.494;2022-12-07T00:36:57;7.10;;;2.35;;
74213;SDS011;62576;55.694;37.494;2022-12-07T00:39:27;6.78;;;2.15;;
74213;SDS011;62576;55.694;37.494;2022-12-07T00:41:57;7.32;;;2.50;;
74213;SDS011;62576;55.694;37.494;2022-12-07T00:44:27;6.47;;;2.40;;
74213;SDS011;62576;55.694;37.494;2022-12-07T00:46:55;6.10;;;2.50;;
74213;SDS011;62576;55.694;37.494;2022-12-07T00:49:25;7.20;;;2.47;;
74213;SDS011;62576;55.694;37.494;2022-12-07T00:51:54;5.07;;;2.00;;
74213;SDS011;62576;55.694;37.494;2022-12-07T00:54:26;7.38;;;2.10;;
74213;SDS011;62576;55.694;37.494;2022-12-07T00:56:56;7.55;;;2.28;;
74213;SDS011;62576;55.694;37.494;2022-12-07T00:59:26;8.45;;;2.45;;
74213;SDS011;62576;55.694;37.494;2022-12-07T01:01:56;7.03;;;2.10;;
74213;SDS011;62576;55.694;37.494;2022-12-07T01:04:26;8.88;;;2.22;;
74213;SDS011;62576;55.694;37.494;2022-12-07T01:06:57;6.85;;;2.45;;
74213;SDS011;62576;55.694;37.494;2022-12-07T01:09:27;6.95;;;2.33;;
74213;SDS011;62576;55.694;37.494;2022-12-07T01:11:57;7.07;;;2.17;;
74213;SDS011;62576;55.694;37.494;2022-12-07T01:14:24;5.47;;;2.08;;
74213;SDS011;62576;55.694;37.494;2022-12-07T01:16:55;6.95;;;2.45;;
74213;SDS011;62576;55.694;37.494;2022-12-07T01:19:25;8.23;;;2.42;;
74213;SDS011;62576;55.694;37.494;2022-12-07T01:21:54;9.38;;;2.65;;
74213;SDS011;62576;55.694;37.494;2022-12-07T01:24:26;6.22;;;2.50;;
74213;SDS011;62576;55.694;37.494;2022-12-07T01:26:56;6.25;;;1.85;;
74213;SDS011;62576;55.694;37.494;2022-12-07T01:29:26;7.50;;;2.63;;
74213;SDS011;62576;55.694;37.494;2022-12-07T01:31:56;7.63;;;2.70;;
74213;SDS011;62576;55.694;37.494;2022-12-07T01:34:25;6.80;;;2.80;;
74213;SDS011;62576;55.694;37.494;2022-12-07T01:36:57;8.23;;;2.30;;
74213;SDS011;62576;55.694;37.494;2022-12-07T01:39:28;10.20;;;2.63;;
74213;SDS011;62576;55.694;37.494;2022-12-07T01:41:58;7.03;;;2.70;;
74213;SDS011;62576;55.694;37.494;2022-12-07T01:44:29;4.35;;;2.25;;
74213;SDS011;62576;55.694;37.494;2022-12-07T01:46:58;5.45;;;2.20;;
74213;SDS011;62576;55.694;37.494;2022-12-07T01:49:32;7.90;;;2.40;;
74213;SDS011;62576;55.694;37.494;2022-12-07T01:52:10;5.93;;;2.30;;
74213;SDS011;62576;55.694;37.494;2022-12-07T01:54:44;8.07;;;2.90;;
74213;SDS011;62576;55.694;37.494;2022-12-07T01:57:17;9.23;;;2.58;;
74213;SDS011;62576;55.694;37.494;2022-12-07T01:59:48;6.47;;;2.08;;
74213;SDS011;62576;55.694;37.494;2022-12-07T02:02:22;6.88;;;2.33;;
74213;SDS011;62576;55.694;37.494;2022-12-07T02:04:54;7.13;;;2.45;;
74213;SDS011;62576;55.694;37.494;2022-12-07T02:07:28;5.47;;;2.08;;
74213;SDS011;62576;55.694;37.494;2022-12-07T02:10:11;8.45;;;2.55;;
74213;SDS011;62576;55.694;37.494;2022-12-07T02:12:42;6.43;;;2.80;;
74213;SDS011;62576;55.694;37.494;2022-12-07T02:15:11;5.63;;;2.25;;
74213;SDS011;62576;55.694;37.494;2022-12-07T02:17:42;8.32;;;2.42;;
74213;SDS011;62576;55.694;37.494;2022-12-07T02:20:23;6.65;;;2.60;;
74213;SDS011;62576;55.694;37.494;2022-12-07T02:26:10;6.15;;;2.22;;
74213;SDS011;62576;55.694;37.494;2022-12-07T02:29:13;9.55;;;2.53;;
74213;SDS011;62576;55.694;37.494;2022-12-07T02:31:53;6.38;;;2.08;;
74213;SDS011;62576;55.694;37.494;2022-12-07T02:34:32;8.70;;;2.28;;
74213;SDS011;62576;55.694;37.494;2022-12-07T02:37:09;6.50;;;1.98;;
74213;SDS011;62576;55.694;37.494;2022-12-07T02:39:48;5.03;;;1.83;;
74213;SDS011;62576;55.694;37.494;2022-12-07T02:42:23;6.93;;;2.00;;
74213;SDS011;62576;55.694;37.494;2022-12-07T02:45:00;6.38;;;2.30;;
74213;SDS011;62576;55.694;37.494;2022-12-07T02:47:27;7.68;;;2.80;;
74213;SDS011;62576;55.694;37.494;2022-12-07T02:50:02;5.07;;;2.05;;
74213;SDS011;62576;55.694;37.494;2022-12-07T02:52:33;5.20;;;2.00;;
74213;SDS011;62576;55.694;37.494;2022-12-07T02:55:04;6.20;;;1.90;;
74213;SDS011;62576;55.694;37.494;2022-12-07T02:57:41;5.45;;;2.20;;
74213;SDS011;62576;55.694;37.494;2022-12-07T03:00:22;7.07;;;2.50;;
74213;SDS011;62576;55.694;37.494;2022-12-07T03:02:53;8.30;;;2.50;;
74213;SDS011;62576;55.694;37.494;2022-12-07T03:05:33;9.65;;;2.83;;
74213;SDS011;62576;55.694;37.494;2022-12-07T03:08:15;6.82;;;2.40;;
74213;SDS011;62576;55.694;37.494;2022-12-07T03:10:54;8.82;;;2.47;;
74213;SDS011;62576;55.694;37.494;2022-12-07T03:13:28;8.95;;;2.35;;
74213;SDS011;62576;55.694;37.494;2022-12-07T03:16:10;8.15;;;2.88;;
74213;SDS011;62576;55.694;37.494;2022-12-07T03:18:46;5.85;;;2.40;;
74213;SDS011;62576;55.694;37.494;2022-12-07T03:21:20;7.60;;;2.70;;
74213;SDS011;62576;55.694;37.494;2022-12-07T03:23:54;7.28;;;2.38;;
74213;SDS011;62576;55.694;37.494;2022-12-07T03:26:28;8.77;;;2.58;;
74213;SDS011;62576;55.694;37.494;2022-12-07T03:29:02;5.88;;;2.20;;
74213;SDS011;62576;55.694;37.494;2022-12-07T03:31:38;8.10;;;2.55;;
74213;SDS011;62576;55.694;37.494;2022-12-07T03:34:12;6.30;;;2.45;;
74213;SDS011;62576;55.694;37.494;2022-12-07T03:36:47;5.75;;;2.00;;
74213;SDS011;62576;55.694;37.494;2022-12-07T03:39:23;5.82;;;2.38;;
74213;SDS011;62576;55.694;37.494;2022-12-07T03:41:57;9.02;;;2.67;;
74213;SDS011;62576;55.694;37.494;2022-12-07T03:44:30;7.05;;;2.40;;
74213;SDS011;62576;55.694;37.494;2022-12-07T03:47:01;4.55;;;2.10;;
74213;SDS011;62576;55.694;37.494;2022-12-07T03:49:37;7.03;;;2.10;;
74213;SDS011;62576;55.694;37.494;2022-12-07T03:52:13;7.28;;;2.67;;
74213;SDS011;62576;55.694;37.494;2022-12-07T03:54:52;6.82;;;2.50;;
74213;SDS011;62576;55.694;37.494;2022-12-07T03:57:28;5.97;;;2.35;;
74213;SDS011;62576;55.694;37.494;2022-12-07T04:00:03;6.75;;;2.50;;
74213;SDS011;62576;55.694;37.494;2022-12-07T04:02:36;7.70;;;2.85;;
74213;SDS011;62576;55.694;37.494;2022-12-07T04:05:07;5.93;;;2.05;;
74213;SDS011;62576;55.694;37.494;2022-12-07T04:07:38;4.35;;;1.42;;
74213;SDS011;62576;55.694;37.494;2022-12-07T04:10:08;4.72;;;2.03;;
74213;SDS011;62576;55.694;37.494;2022-12-07T04:12:39;6.68;;;2.03;;
74213;SDS011;62576;55.694;37.494;2022-12-07T04:15:09;7.93;;;2.20;;
74213;SDS011;62576;55.694;37.494;2022-12-07T04:20:26;8.70;;;2.00;;
74213;SDS011;62576;55.694;37.494;2022-12-07T04:22:56;7.35;;;2.40;;
74213;SDS011;62576;55.694;37.494;2022-12-07T04:25:26;6.38;;;2.25;;
74213;SDS011;62576;55.694;37.494;2022-12-07T04:27:56;8.48;;;2.53;;
74213;SDS011;62576;55.694;37.494;2022-12-07T04:30:26;8.77;;;2.53;;
74213;SDS011;62576;55.694;37.494;2022-12-07T04:32:58;7.55;;;2.05;;
74213;SDS011;62576;55.694;37.494;2022-12-07T04:35:28;7.25;;;2.03;;
74213;SDS011;62576;55.694;37.494;2022-12-07T04:37:58;7.85;;;2.55;;
74213;SDS011;62576;55.694;37.494;2022-12-07T04:40:28;5.38;;;2.20;;
74213;SDS011;62576;55.694;37.494;2022-12-07T04:42:58;8.20;;;2.83;;
74213;SDS011;62576;55.694;37.494;2022-12-07T04:45:28;7.32;;;2.80;;
74213;SDS011;62576;55.694;37.494;2022-12-07T04:47:59;8.10;;;2.50;;
74213;SDS011;62576;55.694;37.494;2022-12-07T04:50:29;5.80;;;2.20;;
74213;SDS011;62576;55.694;37.494;2022-12-07T04:53:00;6.70;;;2.53;;
74213;SDS011;62576;55.694;37.494;2022-12-07T04:55:29;4.30;;;1.98;;
74213;SDS011;62576;55.694;37.494;2022-12-07T04:57:59;7.03;;;2.72;;
74213;SDS011;62576;55.694;37.494;2022-12-07T05:00:29;5.45;;;2.30;;
74213;SDS011;62576;55.694;37.494;2022-12-07T05:03:01;5.65;;;2.22;;
74213;SDS011;62576;55.694;37.494;2022-12-07T05:05:31;5.93;;;2.38;;
74213;SDS011;62576;55.694;37.494;2022-12-07T05:08:00;6.95;;;2.30;;
74213;SDS011;62576;55.694;37.494;2022-12-07T05:10:31;12.52;;;2.90;;
74213;SDS011;62576;55.694;37.494;2022-12-07T05:13:01;8.77;;;2.60;;
74213;SDS011;62576;55.694;37.494;2022-12-07T05:15:30;7.18;;;2.42;;
74213;SDS011;62576;55.694;37.494;2022-12-07T05:18:02;10.15;;;2.85;;
74213;SDS011;62576;55.694;37.494;2022-12-07T05:20:32;6.55;;;1.95;;
74213;SDS011;62576;55.694;37.494;2022-12-07T05:23:02;8.40;;;2.80;;
74213;SDS011;62576;55.694;37.494;2022-12-07T05:25:33;7.53;;;2.72;;
74213;SDS011;62576;55.694;37.494;2022-12-07T05:28:03;7.57;;;2.78;;
74213;SDS011;62576;55.694;37.494;2022-12-07T05:30:34;8.93;;;3.03;;
74213;SDS011;62576;55.694;37.494;2022-12-07T05:33:05;9.32;;;2.70;;
74213;SDS011;62576;55.694;37.494;2022-12-07T05:35:35;9.88;;;3.08;;
74213;SDS011;62576;55.694;37.494;2022-12-07T05:38:06;4.60;;;1.95;;
74213;SDS011;62576;55.694;37.494;2022-12-07T05:40:36;9.23;;;3.00;;
74213;SDS011;62576;55.694;37.494;2022-12-07T05:43:06;6.32;;;2.28;;
74213;SDS011;62576;55.694;37.494;2022-12-07T05:45:36;7.18;;;2.65;;
74213;SDS011;62576;55.694;37.494;2022-12-07T05:48:07;6.80;;;2.78;;
74213;SDS011;62576;55.694;37.494;2022-12-07T05:50:38;7.07;;;2.55;;
74213;SDS011;62576;55.694;37.494;2022-12-07T05:53:08;8.23;;;2.90;;
74213;SDS011;62576;55.694;37.494;2022-12-07T05:55:38;7.55;;;2.95;;
74213;SDS011;62576;55.694;37.494;2022-12-07T05:58:08;8.52;;;3.00;;
74213;SDS011;62576;55.694;37.494;2022-12-07T06:00:56;9.82;;;2.70;;
74213;SDS011;62576;55.694;37.494;2022-12-07T06:03:28;7.95;;;2.88;;
74213;SDS011;62576;55.694;37.494;2022-12-07T06:05:58;7.57;;;2.70;;
74213;SDS011;62576;55.694;37.494;2022-12-07T06:08:28;12.48;;;3.05;;
74213;SDS011;62576;55.694;37.494;2022-12-07T06:10:58;10.93;;;3.00;;
74213;SDS011;62576;55.694;37.494;2022-12-07T06:13:42;7.72;;;2.80;;
74213;SDS011;62576;55.694;37.494;2022-12-07T06:16:12;8.20;;;2.80;;
74213;SDS011;62576;55.694;37.494;2022-12-07T06:18:44;7.95;;;2.85;;
74213;SDS011;62576;55.694;37.494;2022-12-07T06:21:14;8.70;;;2.92;;
74213;SDS011;62576;55.694;37.494;2022-12-07T06:23:44;8.00;;;2.75;;
74213;SDS011;62576;55.694;37.494;2022-12-07T06:26:15;6.97;;;2.40;;
74213;SDS011;62576;55.694;37.494;2022-12-07T06:28:48;9.70;;;3.10;;
74213;SDS011;62576;55.694;37.494;2022-12-07T06:31:19;7.65;;;2.72;;
74213;SDS011;62576;55.694;37.494;2022-12-07T06:33:51;9.13;;;3.10;;
74213;SDS011;62576;55.694;37.494;2022-12-07T06:36:26;8.60;;;3.38;;
74213;SDS011;62576;55.694;37.494;2022-12-07T06:38:56;9.23;;;3.03;;
74213;SDS011;62576;55.694;37.494;2022-12-07T06:41:29;7.97;;;3.40;;
74213;SDS011;62576;55.694;37.494;2022-12-07T06:44:00;8.38;;;3.03;;
74213;SDS011;62576;55.694;37.494;2022-12-07T06:46:30;9.02;;;3.40;;
74213;SDS011;62576;55.694;37.494;2022-12-07T06:49:01;10.02;;;3.42;;
74213;SDS011;62576;55.694;37.494;2022-12-07T06:51:32;10.27;;;2.60;;
74213;SDS011;62576;55.694;37.494;2022-12-07T06:54:04;8.80;;;3.17;;
74213;SDS011;62576;55.694;37.494;2022-12-07T06:56:34;6.22;;;2.75;;
74213;SDS011;62576;55.694;37.494;2022-12-07T06:59:05;7.65;;;3.10;;
74213;SDS011;62576;55.694;37.494;2022-12-07T07:01:35;8.68;;;3.38;;
74213;SDS011;62576;55.694;37.494;2022-12-07T07:04:07;9.88;;;3.35;;
74213;SDS011;62576;55.694;37.494;2022-12-07T07:06:39;10.20;;;2.80;;
74213;SDS011;62576;55.694;37.494;2022-12-07T07:09:13;11.00;;;2.97;;
74213;SDS011;62576;55.694;37.494;2022-12-07T07:11:43;10.25;;;3.58;;
74213;SDS011;62576;55.694;37.494;2022-12-07T07:14:13;9.93;;;3.45;;
74213;SDS011;62576;55.694;37.494;2022-12-07T07:16:47;9.45;;;3.50;;
74213;SDS011;62576;55.694;37.494;2022-12-07T07:19:18;5.53;;;2.33;;
74213;SDS011;62576;55.694;37.494;2022-12-07T07:21:48;10.02;;;2.63;;
74213;SDS011;62576;55.694;37.494;2022-12-07T07:24:19;15.02;;;3.92;;
74213;SDS011;62576;55.694;37.494;2022-12-07T07:26:49;8.73;;;3.45;;
74213;SDS011;62576;55.694;37.494;2022-12-07T07:29:19;8.95;;;3.20;;
74213;SDS011;62576;55.694;37.494;2022-12-07T07:31:50;6.43;;;2.55;;
74213;SDS011;62576;55.694;37.494;2022-12-07T07:34:21;12.23;;;3.65;;
74213;SDS011;62576;55.694;37.494;2022-12-07T07:36:51;11.13;;;3.88;;
74213;SDS011;62576;55.694;37.494;2022-12-07T07:39:21;6.97;;;2.88;;
74213;SDS011;62576;55.694;37.494;2022-12-07T07:41:51;15.45;;;3.83;;
74213;SDS011;62576;55.694;37.494;2022-12-07T07:44:22;10.18;;;3.92;;
74213;SDS011;62576;55.694;37.494;2022-12-07T07:46:51;9.93;;;3.55;;
74213;SDS011;62576;55.694;37.494;2022-12-07T07:49:20;12.90;;;3.78;;
74213;SDS011;62576;55.694;37.494;2022-12-07T07:51:50;11.18;;;3.95;;
74213;SDS011;62576;55.694;37.494;2022-12-07T07:54:20;10.65;;;3.88;;
74213;SDS011;62576;55.694;37.494;2022-12-07T07:56:52;9.98;;;3.72;;
74213;SDS011;62576;55.694;37.494;2022-12-07T07:59:59;12.68;;;2.80;;
74213;SDS011;62576;55.694;37.494;2022-12-07T08:02:42;9.30;;;3.20;;
74213;SDS011;62576;55.694;37.494;2022-12-07T08:05:21;10.30;;;3.05;;
74213;SDS011;62576;55.694;37.494;2022-12-07T08:07:51;11.43;;;3.67;;
74213;SDS011;62576;55.694;37.494;2022-12-07T08:10:24;11.30;;;3.75;;
74213;SDS011;62576;55.694;37.494;2022-12-07T08:12:54;10.10;;;3.35;;
74213;SDS011;62576;55.694;37.494;2022-12-07T08:15:42;12.68;;;4.32;;
74213;SDS011;62576;55.694;37.494;2022-12-07T08:18:13;13.40;;;4.30;;
74213;SDS011;62576;55.694;37.494;2022-12-07T08:20:51;11.57;;;4.15;;
74213;SDS011;62576;55.694;37.494;2022-12-07T08:23:23;9.98;;;3.67;;
74213;SDS011;62576;55.694;37.494;2022-12-07T08:25:53;9.27;;;3.13;;
74213;SDS011;62576;55.694;37.494;2022-12-07T08:28:23;10.43;;;3.80;;
74213;SDS011;62576;55.694;37.494;2022-12-07T08:30:58;11.98;;;3.67;;
74213;SDS011;62576;55.694;37.494;2022-12-07T08:33:28;12.05;;;4.18;;
74213;SDS011;62576;55.694;37.494;2022-12-07T08:36:01;11.85;;;3.75;;
74213;SDS011;62576;55.694;37.494;2022-12-07T08:38:33;10.05;;;2.53;;
74213;SDS011;62576;55.694;37.494;2022-12-07T08:41:04;6.57;;;2.58;;
74213;SDS011;62576;55.694;37.494;2022-12-07T08:43:34;10.68;;;3.45;;
74213;SDS011;62576;55.694;37.494;2022-12-07T08:46:06;11.05;;;3.72;;
74213;SDS011;62576;55.694;37.494;2022-12-07T08:48:40;9.35;;;3.25;;
74213;SDS011;62576;55.694;37.494;2022-12-07T08:51:15;11.07;;;4.00;;
74213;SDS011;62576;55.694;37.494;2022-12-07T08:53:46;10.70;;;3.35;;
74213;SDS011;62576;55.694;37.494;2022-12-07T08:56:16;9.45;;;2.88;;
74213;SDS011;62576;55.694;37.494;2022-12-07T08:58:47;11.70;;;3.55;;
74213;SDS011;62576;55.694;37.494;2022-12-07T09:01:17;11.77;;;4.03;;
74213;SDS011;62576;55.694;37.494;2022-12-07T09:03:47;10.45;;;3.90;;
74213;SDS011;62576;55.694;37.494;2022-12-07T09:06:19;10.60;;;3.63;;
74213;SDS011;62576;55.694;37.494;2022-12-07T09:08:49;10.35;;;3.63;;
74213;SDS011;62576;55.694;37.494;2022-12-07T09:11:23;12.57;;;4.13;;
74213;SDS011;62576;55.694;37.494;2022-12-07T09:13:53;9.40;;;3.60;;
74213;SDS011;62576;55.694;37.494;2022-12-07T09:16:24;9.85;;;3.80;;
74213;SDS011;62576;55.694;37.494;2022-12-07T09:18:54;12.63;;;3.95;;
74213;SDS011;62576;55.694;37.494;2022-12-07T09:21:27;12.70;;;3.75;;
74213;SDS011;62576;55.694;37.494;2022-12-07T09:23:57;13.45;;;4.50;;
74213;SDS011;62576;55.694;37.494;2022-12-07T09:26:29;9.43;;;3.40;;
74213;SDS011;62576;55.694;37.494;2022-12-07T09:29:00;8.23;;;3.30;;
74213;SDS011;62576;55.694;37.494;2022-12-07T09:31:31;10.90;;;4.03;;
74213;SDS011;62576;55.694;37.494;2022-12-07T09:34:02;11.75;;;3.45;;
74213;SDS011;62576;55.694;37.494;2022-12-07T09:36:34;11.63;;;3.92;;
74213;SDS011;62576;55.694;37.494;2022-12-07T09:39:05;11.10;;;4.00;;
74213;SDS011;62576;55.694;37.494;2022-12-07T09:41:37;9.98;;;3.63;;
74213;SDS011;62576;55.694;37.494;2022-12-07T09:44:10;9.98;;;3.38;;
74213;SDS011;62576;55.694;37.494;2022-12-07T09:46:42;11.52;;;3.63;;
74213;SDS011;62576;55.694;37.494;2022-12-07T09:49:14;11.65;;;3.97;;
74213;SDS011;62576;55.694;37.494;2022-12-07T09:51:58;14.43;;;4.78;;
74213;SDS011;62576;55.694;37.494;2022-12-07T09:54:30;9.88;;;4.10;;
74213;SDS011;62576;55.694;37.494;2022-12-07T09:59:34;9.85;;;3.85;;
74213;SDS011;62576;55.694;37.494;2022-12-07T10:02:19;11.18;;;3.75;;
74213;SDS011;62576;55.694;37.494;2022-12-07T10:05:03;12.15;;;3.97;;
74213;SDS011;62576;55.694;37.494;2022-12-07T10:07:39;10.20;;;4.40;;
74213;SDS011;62576;55.694;37.494;2022-12-07T10:10:13;12.27;;;4.10;;
74213;SDS011;62576;55.694;37.494;2022-12-07T10:12:57;11.35;;;3.95;;
74213;SDS011;62576;55.694;37.494;2022-12-07T10:15:46;10.80;;;3.53;;
74213;SDS011;62576;55.694;37.494;2022-12-07T10:18:20;10.32;;;4.00;;
74213;SDS011;62576;55.694;37.494;2022-12-07T10:21:02;10.00;;;4.10;;
74213;SDS011;62576;55.694;37.494;2022-12-07T10:23:37;10.10;;;4.10;;
74213;SDS011;62576;55.694;37.494;2022-12-07T10:26:25;10.25;;;3.90;;
74213;SDS011;62576;55.694;37.494;2022-12-07T10:29:02;11.02;;;4.63;;
74213;SDS011;62576;55.694;37.494;2022-12-07T10:31:46;9.93;;;3.47;;
74213;SDS011;62576;55.694;37.494;2022-12-07T10:34:22;11.52;;;3.95;;
74213;SDS011;62576;55.694;37.494;2022-12-07T10:37:13;8.35;;;4.03;;
74213;SDS011;62576;55.694;37.494;2022-12-07T10:39:57;10.63;;;4.00;;
74213;SDS011;62576;55.694;37.494;2022-12-07T10:42:28;9.85;;;3.72;;
74213;SDS011;62576;55.694;37.494;2022-12-07T10:47:43;10.43;;;4.15;;
74213;SDS011;62576;55.694;37.494;2022-12-07T10:56:08;12.00;;;4.50;;
74213;SDS011;62576;55.694;37.494;2022-12-07T10:58:56;10.90;;;4.10;;
74213;SDS011;62576;55.694;37.494;2022-12-07T11:01:40;11.98;;;3.72;;
74213;SDS011;62576;55.694;37.494;2022-12-07T11:04:18;12.25;;;4.47;;
74213;SDS011;62576;55.694;37.494;2022-12-07T11:06:58;11.02;;;4.20;;
74213;SDS011;62576;55.694;37.494;2022-12-07T11:09:45;11.57;;;4.43;;
74213;SDS011;62576;55.694;37.494;2022-12-07T11:12:26;12.15;;;4.45;;
74213;SDS011;62576;55.694;37.494;2022-12-07T11:15:11;10.82;;;3.80;;
74213;SDS011;62576;55.694;37.494;2022-12-07T11:17:49;13.63;;;4.72;;
74213;SDS011;62576;55.694;37.494;2022-12-07T11:23:18;14.63;;;4.88;;
74213;SDS011;62576;55.694;37.494;2022-12-07T11:26:00;12.48;;;4.53;;
74213;SDS011;62576;55.694;37.494;2022-12-07T11:28:47;12.15;;;4.57;;
74213;SDS011;62576;55.694;37.494;2022-12-07T11:31:33;12.85;;;4.38;;
74213;SDS011;62576;55.694;37.494;2022-12-07T11:34:10;13.63;;;4.85;;
74213;SDS011;62576;55.694;37.494;2022-12-07T11:36:48;10.18;;;4.63;;
74213;SDS011;62576;55.694;37.494;2022-12-07T11:41:56;12.52;;;4.30;;
74213;SDS011;62576;55.694;37.494;2022-12-07T11:44:39;14.95;;;4.90;;
74213;SDS011;62576;55.694;37.494;2022-12-07T11:47:16;13.65;;;4.70;;
74213;SDS011;62576;55.694;37.494;2022-12-07T11:49:53;16.92;;;4.88;;
74213;SDS011;62576;55.694;37.494;2022-12-07T11:52:30;12.90;;;5.15;;
74213;SDS011;62576;55.694;37.494;2022-12-07T11:55:13;11.35;;;5.05;;
74213;SDS011;62576;55.694;37.494;2022-12-07T11:57:51;13.98;;;5.25;;
74213;SDS011;62576;55.694;37.494;2022-12-07T12:00:27;13.13;;;4.85;;
74213;SDS011;62576;55.694;37.494;2022-12-07T12:02:58;14.85;;;5.13;;
74213;SDS011;62576;55.694;37.494;2022-12-07T12:05:33;20.15;;;5.00;;
74213;SDS011;62576;55.694;37.494;2022-12-07T12:08:11;15.43;;;5.63;;
74213;SDS011;62576;55.694;37.494;2022-12-07T12:10:51;15.82;;;5.72;;
74213;SDS011;62576;55.694;37.494;2022-12-07T12:13:29;14.27;;;4.95;;
74213;SDS011;62576;55.694;37.494;2022-12-07T12:16:25;18.08;;;5.13;;
74213;SDS011;62576;55.694;37.494;2022-12-07T12:19:18;12.65;;;5.25;;
74213;SDS011;62576;55.694;37.494;2022-12-07T12:21:55;18.33;;;5.63;;
74213;SDS011;62576;55.694;37.494;2022-12-07T12:24:30;11.60;;;4.18;;
74213;SDS011;62576;55.694;37.494;2022-12-07T12:27:05;14.05;;;5.00;;
74213;SDS011;62576;55.694;37.494;2022-12-07T12:29:38;16.88;;;4.68;;
74213;SDS011;62576;55.694;37.494;2022-12-07T12:32:15;11.60;;;4.30;;
74213;SDS011;62576;55.694;37.494;2022-12-07T12:34:58;13.65;;;4.63;;
74213;SDS011;62576;55.694;37.494;2022-12-07T12:37:52;9.57;;;3.90;;
74213;SDS011;62576;55.694;37.494;2022-12-07T12:49:34;14.82;;;4.95;;
74213;SDS011;62576;55.694;37.494;2022-12-07T13:10:33;14.93;;;4.63;;
74213;SDS011;62576;55.694;37.494;2022-12-07T13:13:30;15.73;;;5.03;;
74213;SDS011;62576;55.694;37.494;2022-12-07T13:22:39;12.35;;;4.47;;
74213;SDS011;62576;55.694;37.494;2022-12-07T13:25:41;16.23;;;4.75;;
74213;SDS011;62576;55.694;37.494;2022-12-07T13:28:17;10.98;;;3.85;;
74213;SDS011;62576;55.694;37.494;2022-12-07T13:31:00;16.70;;;4.32;;
74213;SDS011;62576;55.694;37.494;2022-12-07T13:36:10;14.90;;;4.18;;
74213;SDS011;62576;55.694;37.494;2022-12-07T13:38:51;13.57;;;4.75;;
74213;SDS011;62576;55.694;37.494;2022-12-07T13:41:25;12.05;;;3.83;;
74213;SDS011;62576;55.694;37.494;2022-12-07T13:44:01;16.17;;;5.68;;
74213;SDS011;62576;55.694;37.494;2022-12-07T13:46:43;13.10;;;4.22;;
74213;SDS011;62576;55.694;37.494;2022-12-07T13:49:24;16.17;;;4.72;;
74213;SDS011;62576;55.694;37.494;2022-12-07T13:52:08;13.10;;;4.82;;
74213;SDS011;62576;55.694;37.494;2022-12-07T13:54:49;15.52;;;5.20;;
74213;SDS011;62576;55.694;37.494;2022-12-07T13:57:29;19.30;;;5.10;;
74213;SDS011;62576;55.694;37.494;2022-12-07T14:00:06;13.65;;;5.15;;
74213;SDS011;62576;55.694;37.494;2022-12-07T14:02:54;15.73;;;5.20;;
74213;SDS011;62576;55.694;37.494;2022-12-07T14:08:46;11.07;;;3.58;;
74213;SDS011;62576;55.694;37.494;2022-12-07T14:11:17;20.83;;;4.45;;
74213;SDS011;62576;55.694;37.494;2022-12-07T14:13:58;12.82;;;4.82;;
74213;SDS011;62576;55.694;37.494;2022-12-07T14:16:31;11.52;;;4.35;;
74213;SDS011;62576;55.694;37.494;2022-12-07T14:19:03;7.80;;;2.63;;
74213;SDS011;62576;55.694;37.494;2022-12-07T14:21:35;14.60;;;4.82;;
74213;SDS011;62576;55.694;37.494;2022-12-07T14:24:10;9.93;;;3.20;;
74213;SDS011;62576;55.694;37.494;2022-12-07T14:26:44;12.98;;;4.18;;
74213;SDS011;62576;55.694;37.494;2022-12-07T14:29:20;19.38;;;3.65;;
74213;SDS011;62576;55.694;37.494;2022-12-07T14:31:59;16.30;;;4.93;;
74213;SDS011;62576;55.694;37.494;2022-12-07T14:34:56;12.73;;;4.55;;
74213;SDS011;62576;55.694;37.494;2022-12-07T14:37:30;9.25;;;3.33;;
74213;SDS011;62576;55.694;37.494;2022-12-07T14:40:00;14.73;;;5.32;;
74213;SDS011;62576;55.694;37.494;2022-12-07T14:42:31;16.00;;;4.75;;
74213;SDS011;62576;55.694;37.494;2022-12-07T14:45:05;16.45;;;4.97;;
74213;SDS011;62576;55.694;37.494;2022-12-07T14:47:40;11.85;;;4.35;;
74213;SDS011;62576;55.694;37.494;2022-12-07T14:50:12;13.45;;;4.18;;
74213;SDS011;62576;55.694;37.494;2022-12-07T14:52:46;14.13;;;4.65;;
74213;SDS011;62576;55.694;37.494;2022-12-07T14:55:23;12.18;;;4.07;;
74213;SDS011;62576;55.694;37.494;2022-12-07T14:57:57;13.43;;;5.05;;
74213;SDS011;62576;55.694;37.494;2022-12-07T15:00:29;18.85;;;4.97;;
74213;SDS011;62576;55.694;37.494;2022-12-07T15:02:59;14.00;;;4.00;;
74213;SDS011;62576;55.694;37.494;2022-12-07T15:05:30;14.43;;;4.47;;
74213;SDS011;62576;55.694;37.494;2022-12-07T15:08:00;14.50;;;4.88;;
74213;SDS011;62576;55.694;37.494;2022-12-07T15:10:31;13.93;;;4.60;;
74213;SDS011;62576;55.694;37.494;2022-12-07T15:13:07;11.93;;;4.35;;
74213;SDS011;62576;55.694;37.494;2022-12-07T15:15:55;12.25;;;3.55;;
74213;SDS011;62576;55.694;37.494;2022-12-07T15:18:25;11.45;;;3.60;;
74213;SDS011;62576;55.694;37.494;2022-12-07T15:20:55;16.33;;;4.30;;
74213;SDS011;62576;55.694;37.494;2022-12-07T15:23:25;14.65;;;4.68;;
74213;SDS011;62576;55.694;37.494;2022-12-07T15:25:55;12.07;;;3.80;;
74213;SDS011;62576;55.694;37.494;2022-12-07T15:28:25;12.52;;;3.90;;
74213;SDS011;62576;55.694;37.494;2022-12-07T15:30:57;11.35;;;4.22;;
74213;SDS011;62576;55.694;37.494;2022-12-07T15:33:27;14.52;;;5.28;;
74213;SDS011;62576;55.694;37.494;2022-12-07T15:35:58;11.07;;;3.97;;
74213;SDS011;62576;55.694;37.494;2022-12-07T15:38:29;10.30;;;3.22;;
74213;SDS011;62576;55.694;37.494;2022-12-07T15:40:59;16.10;;;4.95;;
74213;SDS011;62576;55.694;37.494;2022-12-07T15:43:29;15.48;;;4.38;;
74213;SDS011;62576;55.694;37.494;2022-12-07T15:46:18;11.27;;;4.07;;
74213;SDS011;62576;55.694;37.494;2022-12-07T15:48:58;12.27;;;3.92;;
74213;SDS011;62576;55.694;37.494;2022-12-07T15:51:29;13.23;;;4.05;;
74213;SDS011;62576;55.694;37.494;2022-12-07T15:53:59;17.75;;;4.80;;
74213;SDS011;62576;55.694;37.494;2022-12-07T15:56:29;15.60;;;4.80;;
74213;SDS011;62576;55.694;37.494;2022-12-07T15:58:59;13.73;;;4.75;;
74213;SDS011;62576;55.694;37.494;2022-12-07T16:01:31;11.55;;;3.90;;
74213;SDS011;62576;55.694;37.494;2022-12-07T16:04:04;12.05;;;3.85;;
74213;SDS011;62576;55.694;37.494;2022-12-07T16:06:34;11.13;;;3.97;;
74213;SDS011;62576;55.694;37.494;2022-12-07T16:09:04;11.45;;;3.80;;
74213;SDS011;62576;55.694;37.494;2022-12-07T16:11:34;12.85;;;4.78;;